sensor_id;sensor_type;location;lat;lon;timestamp;temperature;humidity
1626;DHT22;806;48.770;9.156;2022-10-16T00:01:08;16.50;99.90
1626;DHT22;806;48.770;9.156;2022-10-16T00:03:37;16.50;99.90
1626;DHT22;806;48.770;9.156;2022-10-16T00:06:04;16.60;99.90
1626;DHT22;806;48.770;9.156;2022-10-16T00:08:35;16.60;99.90
1626;DHT22;806;48.770;9.156;2022-10-16T00:11:03;16.50;99.90
1626;DHT22;806;48.770;9.156;2022-10-16T00:13:31;16.50;99.90
1626;DHT22;806;48.770;9.156;2022-10-16T00:16:01;16.40;99.90
1626;DHT22;806;48.770;9.156;2022-10-16T00:18:29;16.40;99.90
1626;DHT22;806;48.770;9.156;2022-10-16T00:21:02;16.40;99.90
1626;DHT22;806;48.770;9.156;2022-10-16T00:23:29;16.40;99.90
1626;DHT22;806;48.770;9.156;2022-10-16T00:25:56;16.30;99.90
1626;DHT22;806;48.770;9.156;2022-10-16T00:28:24;16.30;99.90
1626;DHT22;806;48.770;9.156;2022-10-16T00:30:51;16.30;99.90
1626;DHT22;806;48.770;9.156;2022-10-16T00:33:20;16.30;99.90
1626;DHT22;806;48.770;9.156;2022-10-16T00:35:47;16.30;99.90
1626;DHT22;806;48.770;9.156;2022-10-16T00:38:14;16.30;99.90
1626;DHT22;806;48.770;9.156;2022-10-16T00:40:41;16.30;99.90
1626;DHT22;806;48.770;9.156;2022-10-16T00:43:13;16.30;99.90
1626;DHT22;806;48.770;9.156;2022-10-16T00:45:41;16.30;99.90
1626;DHT22;806;48.770;9.156;2022-10-16T00:48:11;16.40;99.90
1626;DHT22;806;48.770;9.156;2022-10-16T00:50:41;16.30;99.90
1626;DHT22;806;48.770;9.156;2022-10-16T00:53:10;16.30;99.90
1626;DHT22;806;48.770;9.156;2022-10-16T00:55:38;16.30;99.90
1626;DHT22;806;48.770;9.156;2022-10-16T00:58:05;16.40;99.90
1626;DHT22;806;48.770;9.156;2022-10-16T01:00:32;16.40;99.90
1626;DHT22;806;48.770;9.156;2022-10-16T01:03:00;16.40;99.90
1626;DHT22;806;48.770;9.156;2022-10-16T01:05:32;16.40;99.90
1626;DHT22;806;48.770;9.156;2022-10-16T01:08:07;16.40;99.90
1626;DHT22;806;48.770;9.156;2022-10-16T01:10:40;16.40;99.90
1626;DHT22;806;48.770;9.156;2022-10-16T01:13:10;16.40;99.90
1626;DHT22;806;48.770;9.156;2022-10-16T01:15:40;16.40;99.90
1626;DHT22;806;48.770;9.156;2022-10-16T01:18:12;16.40;99.90
1626;DHT22;806;48.770;9.156;2022-10-16T01:20:44;16.40;99.90
1626;DHT22;806;48.770;9.156;2022-10-16T01:23:28;16.40;99.90
1626;DHT22;806;48.770;9.156;2022-10-16T01:26:13;16.30;99.90
1626;DHT22;806;48.770;9.156;2022-10-16T01:28:47;16.40;99.90
1626;DHT22;806;48.770;9.156;2022-10-16T01:31:20;16.40;99.90
1626;DHT22;806;48.770;9.156;2022-10-16T01:33:54;16.40;99.90
1626;DHT22;806;48.770;9.156;2022-10-16T01:36:27;16.40;99.90
1626;DHT22;806;48.770;9.156;2022-10-16T01:38:57;16.40;99.90
1626;DHT22;806;48.770;9.156;2022-10-16T01:41:30;16.30;99.90
1626;DHT22;806;48.770;9.156;2022-10-16T01:44:02;16.40;99.90
1626;DHT22;806;48.770;9.156;2022-10-16T01:46:32;16.40;99.90
1626;DHT22;806;48.770;9.156;2022-10-16T01:49:02;16.40;99.90
1626;DHT22;806;48.770;9.156;2022-10-16T01:51:30;16.40;99.90
1626;DHT22;806;48.770;9.156;2022-10-16T01:53:59;16.40;99.90
1626;DHT22;806;48.770;9.156;2022-10-16T01:56:27;16.40;99.90
1626;DHT22;806;48.770;9.156;2022-10-16T01:58:57;16.40;99.90
1626;DHT22;806;48.770;9.156;2022-10-16T02:01:30;16.40;99.90
1626;DHT22;806;48.770;9.156;2022-10-16T02:04:02;16.40;99.90
1626;DHT22;806;48.770;9.156;2022-10-16T02:06:30;16.50;99.90
1626;DHT22;806;48.770;9.156;2022-10-16T02:08:57;16.50;99.90
1626;DHT22;806;48.770;9.156;2022-10-16T02:11:25;16.60;99.90
1626;DHT22;806;48.770;9.156;2022-10-16T02:13:57;16.60;99.90
1626;DHT22;806;48.770;9.156;2022-10-16T02:16:33;16.60;99.90
1626;DHT22;806;48.770;9.156;2022-10-16T02:19:00;16.50;99.90
1626;DHT22;806;48.770;9.156;2022-10-16T02:21:31;16.50;99.90
1626;DHT22;806;48.770;9.156;2022-10-16T02:24:03;16.50;99.90
1626;DHT22;806;48.770;9.156;2022-10-16T02:26:35;16.60;99.90
1626;DHT22;806;48.770;9.156;2022-10-16T02:29:08;16.60;99.90
1626;DHT22;806;48.770;9.156;2022-10-16T02:31:41;16.60;99.90
1626;DHT22;806;48.770;9.156;2022-10-16T02:34:10;16.60;99.90
1626;DHT22;806;48.770;9.156;2022-10-16T02:36:39;16.60;99.90
1626;DHT22;806;48.770;9.156;2022-10-16T02:39:07;16.60;99.90
1626;DHT22;806;48.770;9.156;2022-10-16T02:41:34;16.60;99.90
1626;DHT22;806;48.770;9.156;2022-10-16T02:44:02;16.60;99.90
1626;DHT22;806;48.770;9.156;2022-10-16T02:46:29;16.50;99.90
1626;DHT22;806;48.770;9.156;2022-10-16T02:48:57;16.50;99.90
1626;DHT22;806;48.770;9.156;2022-10-16T02:51:24;16.50;99.90
1626;DHT22;806;48.770;9.156;2022-10-16T02:53:51;16.40;99.90
1626;DHT22;806;48.770;9.156;2022-10-16T02:56:18;16.40;99.90
1626;DHT22;806;48.770;9.156;2022-10-16T02:58:45;16.50;99.90
1626;DHT22;806;48.770;9.156;2022-10-16T03:01:12;16.40;99.90
1626;DHT22;806;48.770;9.156;2022-10-16T03:03:39;16.50;99.90
1626;DHT22;806;48.770;9.156;2022-10-16T03:06:08;16.40;99.90
1626;DHT22;806;48.770;9.156;2022-10-16T03:08:35;16.40;99.90
1626;DHT22;806;48.770;9.156;2022-10-16T03:11:04;16.40;99.90
1626;DHT22;806;48.770;9.156;2022-10-16T03:13:31;16.40;99.90
1626;DHT22;806;48.770;9.156;2022-10-16T03:15:58;16.30;99.90
1626;DHT22;806;48.770;9.156;2022-10-16T03:18:25;16.30;99.90
1626;DHT22;806;48.770;9.156;2022-10-16T03:20:52;16.30;99.90
1626;DHT22;806;48.770;9.156;2022-10-16T03:23:20;16.30;99.90
1626;DHT22;806;48.770;9.156;2022-10-16T03:25:47;16.30;99.90
1626;DHT22;806;48.770;9.156;2022-10-16T03:28:14;16.30;99.90
1626;DHT22;806;48.770;9.156;2022-10-16T03:30:42;16.30;99.90
1626;DHT22;806;48.770;9.156;2022-10-16T03:33:09;16.20;99.90
1626;DHT22;806;48.770;9.156;2022-10-16T03:35:36;16.30;99.90
1626;DHT22;806;48.770;9.156;2022-10-16T03:38:03;16.30;99.90
1626;DHT22;806;48.770;9.156;2022-10-16T03:40:32;16.20;99.90
1626;DHT22;806;48.770;9.156;2022-10-16T03:42:59;16.20;99.90
1626;DHT22;806;48.770;9.156;2022-10-16T03:45:27;16.20;99.90
1626;DHT22;806;48.770;9.156;2022-10-16T03:47:53;16.10;99.90
1626;DHT22;806;48.770;9.156;2022-10-16T03:50:22;16.10;99.90
1626;DHT22;806;48.770;9.156;2022-10-16T03:52:50;16.10;99.90
1626;DHT22;806;48.770;9.156;2022-10-16T03:55:17;16.10;99.90
1626;DHT22;806;48.770;9.156;2022-10-16T03:57:46;16.10;99.90
1626;DHT22;806;48.770;9.156;2022-10-16T04:00:13;16.10;99.90
1626;DHT22;806;48.770;9.156;2022-10-16T04:02:40;16.10;99.90
1626;DHT22;806;48.770;9.156;2022-10-16T04:05:08;16.10;99.90
1626;DHT22;806;48.770;9.156;2022-10-16T04:07:35;16.10;99.90
1626;DHT22;806;48.770;9.156;2022-10-16T04:10:02;16.10;99.90
1626;DHT22;806;48.770;9.156;2022-10-16T04:12:29;16.10;99.90
1626;DHT22;806;48.770;9.156;2022-10-16T04:14:57;16.10;99.90
1626;DHT22;806;48.770;9.156;2022-10-16T04:17:24;16.10;99.90
1626;DHT22;806;48.770;9.156;2022-10-16T04:19:51;16.20;99.90
1626;DHT22;806;48.770;9.156;2022-10-16T04:22:18;16.20;99.90
1626;DHT22;806;48.770;9.156;2022-10-16T04:24:45;16.20;99.90
1626;DHT22;806;48.770;9.156;2022-10-16T04:27:14;16.20;99.90
1626;DHT22;806;48.770;9.156;2022-10-16T04:29:41;16.20;99.90
1626;DHT22;806;48.770;9.156;2022-10-16T04:32:09;16.10;99.90
1626;DHT22;806;48.770;9.156;2022-10-16T04:34:36;16.20;99.90
1626;DHT22;806;48.770;9.156;2022-10-16T04:37:03;16.20;99.90
1626;DHT22;806;48.770;9.156;2022-10-16T04:39:30;16.20;99.90
1626;DHT22;806;48.770;9.156;2022-10-16T04:41:57;16.20;99.90
1626;DHT22;806;48.770;9.156;2022-10-16T04:44:24;16.10;99.90
1626;DHT22;806;48.770;9.156;2022-10-16T04:46:51;16.10;99.90
1626;DHT22;806;48.770;9.156;2022-10-16T04:49:22;16.10;99.90
1626;DHT22;806;48.770;9.156;2022-10-16T04:51:49;16.10;99.90
1626;DHT22;806;48.770;9.156;2022-10-16T04:54:16;16.10;99.90
1626;DHT22;806;48.770;9.156;2022-10-16T04:56:43;16.20;99.90
1626;DHT22;806;48.770;9.156;2022-10-16T04:59:13;16.20;99.90
1626;DHT22;806;48.770;9.156;2022-10-16T05:01:40;16.10;99.90
1626;DHT22;806;48.770;9.156;2022-10-16T05:04:07;16.20;99.90
1626;DHT22;806;48.770;9.156;2022-10-16T05:06:36;16.10;99.90
1626;DHT22;806;48.770;9.156;2022-10-16T05:09:04;16.10;99.90
1626;DHT22;806;48.770;9.156;2022-10-16T05:11:31;16.10;99.90
1626;DHT22;806;48.770;9.156;2022-10-16T05:13:58;16.00;99.90
1626;DHT22;806;48.770;9.156;2022-10-16T05:16:25;16.00;99.90
1626;DHT22;806;48.770;9.156;2022-10-16T05:18:52;16.00;99.90
1626;DHT22;806;48.770;9.156;2022-10-16T05:21:20;16.10;99.90
1626;DHT22;806;48.770;9.156;2022-10-16T05:23:48;16.00;99.90
1626;DHT22;806;48.770;9.156;2022-10-16T05:26:15;16.00;99.90
1626;DHT22;806;48.770;9.156;2022-10-16T05:28:42;16.00;99.90
1626;DHT22;806;48.770;9.156;2022-10-16T05:31:09;16.00;99.90
1626;DHT22;806;48.770;9.156;2022-10-16T05:33:36;16.00;99.90
1626;DHT22;806;48.770;9.156;2022-10-16T05:36:05;16.00;99.90
1626;DHT22;806;48.770;9.156;2022-10-16T05:38:33;16.00;99.90
1626;DHT22;806;48.770;9.156;2022-10-16T05:41:02;15.90;99.90
1626;DHT22;806;48.770;9.156;2022-10-16T05:43:30;15.90;99.90
1626;DHT22;806;48.770;9.156;2022-10-16T05:45:58;16.00;99.90
1626;DHT22;806;48.770;9.156;2022-10-16T05:48:26;16.00;99.90
1626;DHT22;806;48.770;9.156;2022-10-16T05:50:57;16.00;99.90
1626;DHT22;806;48.770;9.156;2022-10-16T05:53:24;16.00;99.90
1626;DHT22;806;48.770;9.156;2022-10-16T05:55:52;16.00;99.90
1626;DHT22;806;48.770;9.156;2022-10-16T05:58:21;16.00;99.90
1626;DHT22;806;48.770;9.156;2022-10-16T06:00:55;16.00;99.90
1626;DHT22;806;48.770;9.156;2022-10-16T06:03:22;16.00;99.90
1626;DHT22;806;48.770;9.156;2022-10-16T06:05:49;16.00;99.90
1626;DHT22;806;48.770;9.156;2022-10-16T06:08:16;16.00;99.90
1626;DHT22;806;48.770;9.156;2022-10-16T06:10:44;16.00;99.90
1626;DHT22;806;48.770;9.156;2022-10-16T06:13:11;16.00;99.90
1626;DHT22;806;48.770;9.156;2022-10-16T06:15:39;16.10;99.90
1626;DHT22;806;48.770;9.156;2022-10-16T06:18:07;16.10;99.90
1626;DHT22;806;48.770;9.156;2022-10-16T06:20:35;16.10;99.90
1626;DHT22;806;48.770;9.156;2022-10-16T06:23:02;16.10;99.90
1626;DHT22;806;48.770;9.156;2022-10-16T06:25:30;16.10;99.90
1626;DHT22;806;48.770;9.156;2022-10-16T06:27:57;16.10;99.90
1626;DHT22;806;48.770;9.156;2022-10-16T06:30:24;16.10;99.90
1626;DHT22;806;48.770;9.156;2022-10-16T06:32:52;16.10;99.90
1626;DHT22;806;48.770;9.156;2022-10-16T06:35:19;16.20;99.90
1626;DHT22;806;48.770;9.156;2022-10-16T06:37:46;16.20;99.90
1626;DHT22;806;48.770;9.156;2022-10-16T06:40:13;16.20;99.90
1626;DHT22;806;48.770;9.156;2022-10-16T06:42:41;16.20;99.90
1626;DHT22;806;48.770;9.156;2022-10-16T06:45:08;16.30;99.90
1626;DHT22;806;48.770;9.156;2022-10-16T06:47:35;16.30;99.90
1626;DHT22;806;48.770;9.156;2022-10-16T06:50:05;16.30;99.90
1626;DHT22;806;48.770;9.156;2022-10-16T06:52:33;16.40;99.90
1626;DHT22;806;48.770;9.156;2022-10-16T06:55:00;16.40;99.90
1626;DHT22;806;48.770;9.156;2022-10-16T06:57:28;16.50;99.90
1626;DHT22;806;48.770;9.156;2022-10-16T06:59:55;16.50;99.90
1626;DHT22;806;48.770;9.156;2022-10-16T07:02:23;16.50;99.90
1626;DHT22;806;48.770;9.156;2022-10-16T07:04:50;16.50;99.90
1626;DHT22;806;48.770;9.156;2022-10-16T07:07:18;16.60;99.90
1626;DHT22;806;48.770;9.156;2022-10-16T07:09:45;16.60;99.90
1626;DHT22;806;48.770;9.156;2022-10-16T07:12:12;16.70;99.90
1626;DHT22;806;48.770;9.156;2022-10-16T07:14:39;16.70;99.90
1626;DHT22;806;48.770;9.156;2022-10-16T07:17:06;16.80;99.90
1626;DHT22;806;48.770;9.156;2022-10-16T07:19:33;16.80;99.90
1626;DHT22;806;48.770;9.156;2022-10-16T07:22:00;16.80;99.90
1626;DHT22;806;48.770;9.156;2022-10-16T07:24:28;16.80;99.90
1626;DHT22;806;48.770;9.156;2022-10-16T07:26:55;16.80;99.90
1626;DHT22;806;48.770;9.156;2022-10-16T07:29:25;16.90;99.90
1626;DHT22;806;48.770;9.156;2022-10-16T07:31:52;16.90;99.90
1626;DHT22;806;48.770;9.156;2022-10-16T07:34:21;16.80;99.90
1626;DHT22;806;48.770;9.156;2022-10-16T07:36:49;16.80;99.90
1626;DHT22;806;48.770;9.156;2022-10-16T07:39:16;16.80;99.90
1626;DHT22;806;48.770;9.156;2022-10-16T07:41:45;16.80;99.90
1626;DHT22;806;48.770;9.156;2022-10-16T07:44:12;16.90;99.90
1626;DHT22;806;48.770;9.156;2022-10-16T07:46:39;16.90;99.90
1626;DHT22;806;48.770;9.156;2022-10-16T07:49:06;16.90;99.90
1626;DHT22;806;48.770;9.156;2022-10-16T07:51:32;17.00;99.90
1626;DHT22;806;48.770;9.156;2022-10-16T07:53:59;17.10;99.90
1626;DHT22;806;48.770;9.156;2022-10-16T07:56:27;17.10;99.90
1626;DHT22;806;48.770;9.156;2022-10-16T07:58:55;17.10;99.90
1626;DHT22;806;48.770;9.156;2022-10-16T08:01:22;17.20;99.90
1626;DHT22;806;48.770;9.156;2022-10-16T08:03:51;17.20;99.90
1626;DHT22;806;48.770;9.156;2022-10-16T08:06:19;17.30;99.90
1626;DHT22;806;48.770;9.156;2022-10-16T08:08:46;17.30;99.90
1626;DHT22;806;48.770;9.156;2022-10-16T08:11:14;17.40;99.90
1626;DHT22;806;48.770;9.156;2022-10-16T08:13:41;17.50;99.90
1626;DHT22;806;48.770;9.156;2022-10-16T08:16:10;17.60;99.90
1626;DHT22;806;48.770;9.156;2022-10-16T08:18:38;17.70;99.90
1626;DHT22;806;48.770;9.156;2022-10-16T08:21:06;17.70;99.90
1626;DHT22;806;48.770;9.156;2022-10-16T08:23:34;17.80;99.90
1626;DHT22;806;48.770;9.156;2022-10-16T08:26:06;17.90;99.90
1626;DHT22;806;48.770;9.156;2022-10-16T08:28:33;18.00;99.90
1626;DHT22;806;48.770;9.156;2022-10-16T08:31:12;18.00;99.30
1626;DHT22;806;48.770;9.156;2022-10-16T08:33:41;18.20;93.20
1626;DHT22;806;48.770;9.156;2022-10-16T08:36:10;18.20;96.30
1626;DHT22;806;48.770;9.156;2022-10-16T08:38:38;18.30;95.10
1626;DHT22;806;48.770;9.156;2022-10-16T08:44:29;18.40;91.20
1626;DHT22;806;48.770;9.156;2022-10-16T08:47:05;18.40;91.90
1626;DHT22;806;48.770;9.156;2022-10-16T08:49:35;18.30;96.50
1626;DHT22;806;48.770;9.156;2022-10-16T08:52:03;18.20;99.50
1626;DHT22;806;48.770;9.156;2022-10-16T08:54:34;18.20;99.90
1626;DHT22;806;48.770;9.156;2022-10-16T08:57:09;18.20;99.90
1626;DHT22;806;48.770;9.156;2022-10-16T08:59:38;18.20;99.90
1626;DHT22;806;48.770;9.156;2022-10-16T09:02:20;18.20;99.90
1626;DHT22;806;48.770;9.156;2022-10-16T09:07:49;18.40;99.90
1626;DHT22;806;48.770;9.156;2022-10-16T09:10:30;18.50;99.90
1626;DHT22;806;48.770;9.156;2022-10-16T09:13:02;18.40;99.90
1626;DHT22;806;48.770;9.156;2022-10-16T09:15:38;18.50;99.90
1626;DHT22;806;48.770;9.156;2022-10-16T09:18:16;18.60;96.10
1626;DHT22;806;48.770;9.156;2022-10-16T09:20:51;18.70;94.80
1626;DHT22;806;48.770;9.156;2022-10-16T09:23:22;18.70;62.80
1626;DHT22;806;48.770;9.156;2022-10-16T09:25:53;18.80;58.80
1626;DHT22;806;48.770;9.156;2022-10-16T09:28:21;18.80;41.40
1626;DHT22;806;48.770;9.156;2022-10-16T09:30:48;18.90;42.50
1626;DHT22;806;48.770;9.156;2022-10-16T09:33:21;18.90;31.60
1626;DHT22;806;48.770;9.156;2022-10-16T09:35:51;19.00;22.70
1626;DHT22;806;48.770;9.156;2022-10-16T09:38:24;19.00;22.90
1626;DHT22;806;48.770;9.156;2022-10-16T09:40:52;19.10;27.70
1626;DHT22;806;48.770;9.156;2022-10-16T09:43:23;19.10;40.20
1626;DHT22;806;48.770;9.156;2022-10-16T09:45:57;19.10;29.50
1626;DHT22;806;48.770;9.156;2022-10-16T09:48:28;19.10;26.70
1626;DHT22;806;48.770;9.156;2022-10-16T09:51:01;19.10;29.40
1626;DHT22;806;48.770;9.156;2022-10-16T09:53:42;19.20;38.10
1626;DHT22;806;48.770;9.156;2022-10-16T09:56:10;19.40;25.70
1626;DHT22;806;48.770;9.156;2022-10-16T09:58:42;19.60;14.20
1626;DHT22;806;48.770;9.156;2022-10-16T10:01:13;19.70;10.50
1626;DHT22;806;48.770;9.156;2022-10-16T10:03:43;19.90;4.40
1626;DHT22;806;48.770;9.156;2022-10-16T10:06:25;20.00;1.00
1626;DHT22;806;48.770;9.156;2022-10-16T10:08:58;20.10;1.00
1626;DHT22;806;48.770;9.156;2022-10-16T10:11:43;20.20;1.00
1626;DHT22;806;48.770;9.156;2022-10-16T10:14:20;20.40;1.00
1626;DHT22;806;48.770;9.156;2022-10-16T10:16:48;20.50;1.00
1626;DHT22;806;48.770;9.156;2022-10-16T10:19:19;20.60;1.00
1626;DHT22;806;48.770;9.156;2022-10-16T10:21:46;20.60;1.00
1626;DHT22;806;48.770;9.156;2022-10-16T10:24:16;20.70;1.00
1626;DHT22;806;48.770;9.156;2022-10-16T10:26:49;20.80;1.00
1626;DHT22;806;48.770;9.156;2022-10-16T10:29:29;20.90;1.00
1626;DHT22;806;48.770;9.156;2022-10-16T10:32:07;21.00;1.00
1626;DHT22;806;48.770;9.156;2022-10-16T10:34:50;21.20;1.00
1626;DHT22;806;48.770;9.156;2022-10-16T10:37:30;21.40;1.00
1626;DHT22;806;48.770;9.156;2022-10-16T10:40:08;21.70;1.00
1626;DHT22;806;48.770;9.156;2022-10-16T10:42:40;22.00;99.90
1626;DHT22;806;48.770;9.156;2022-10-16T10:45:21;22.10;99.90
1626;DHT22;806;48.770;9.156;2022-10-16T10:48:05;22.30;99.90
1626;DHT22;806;48.770;9.156;2022-10-16T10:50:39;22.50;99.90
1626;DHT22;806;48.770;9.156;2022-10-16T10:53:29;22.80;1.00
1626;DHT22;806;48.770;9.156;2022-10-16T10:56:04;23.20;99.90
1626;DHT22;806;48.770;9.156;2022-10-16T10:59:01;23.50;1.00
1626;DHT22;806;48.770;9.156;2022-10-16T11:01:40;23.70;1.00
1626;DHT22;806;48.770;9.156;2022-10-16T11:07:04;23.80;1.00
1626;DHT22;806;48.770;9.156;2022-10-16T11:09:34;23.80;1.00
1626;DHT22;806;48.770;9.156;2022-10-16T11:12:06;23.60;1.00
1626;DHT22;806;48.770;9.156;2022-10-16T11:14:41;23.40;1.00
1626;DHT22;806;48.770;9.156;2022-10-16T11:17:12;23.20;1.00
1626;DHT22;806;48.770;9.156;2022-10-16T11:19:44;23.00;1.00
1626;DHT22;806;48.770;9.156;2022-10-16T11:22:17;22.90;14.00
1626;DHT22;806;48.770;9.156;2022-10-16T11:24:49;23.00;99.90
1626;DHT22;806;48.770;9.156;2022-10-16T11:27:23;22.90;99.90
1626;DHT22;806;48.770;9.156;2022-10-16T11:29:57;23.10;21.60
1626;DHT22;806;48.770;9.156;2022-10-16T11:32:30;23.20;99.90
1626;DHT22;806;48.770;9.156;2022-10-16T11:35:04;23.30;99.90
1626;DHT22;806;48.770;9.156;2022-10-16T11:37:39;23.30;99.90
1626;DHT22;806;48.770;9.156;2022-10-16T11:40:19;23.40;99.90
1626;DHT22;806;48.770;9.156;2022-10-16T11:42:57;23.60;6.70
1626;DHT22;806;48.770;9.156;2022-10-16T11:45:30;23.70;1.00
1626;DHT22;806;48.770;9.156;2022-10-16T11:48:04;23.60;1.00
1626;DHT22;806;48.770;9.156;2022-10-16T11:50:38;23.70;1.00
1626;DHT22;806;48.770;9.156;2022-10-16T11:53:16;23.80;1.00
1626;DHT22;806;48.770;9.156;2022-10-16T11:55:44;23.70;1.00
1626;DHT22;806;48.770;9.156;2022-10-16T11:58:18;23.90;1.00
1626;DHT22;806;48.770;9.156;2022-10-16T12:00:53;24.00;1.00
1626;DHT22;806;48.770;9.156;2022-10-16T12:03:27;23.90;99.90
1626;DHT22;806;48.770;9.156;2022-10-16T12:06:21;24.00;1.00
1626;DHT22;806;48.770;9.156;2022-10-16T12:08:51;24.00;1.00
1626;DHT22;806;48.770;9.156;2022-10-16T12:11:31;24.00;1.00
1626;DHT22;806;48.770;9.156;2022-10-16T12:14:20;23.90;1.00
1626;DHT22;806;48.770;9.156;2022-10-16T12:16:55;24.00;1.00
1626;DHT22;806;48.770;9.156;2022-10-16T12:19:25;24.10;1.00
1626;DHT22;806;48.770;9.156;2022-10-16T12:21:58;24.20;99.90
1626;DHT22;806;48.770;9.156;2022-10-16T12:24:35;24.20;99.90
1626;DHT22;806;48.770;9.156;2022-10-16T12:27:03;24.30;1.00
1626;DHT22;806;48.770;9.156;2022-10-16T12:29:36;24.40;99.90
1626;DHT22;806;48.770;9.156;2022-10-16T12:32:18;24.20;1.00
1626;DHT22;806;48.770;9.156;2022-10-16T12:34:47;24.00;99.90
1626;DHT22;806;48.770;9.156;2022-10-16T12:37:20;24.00;1.00
1626;DHT22;806;48.770;9.156;2022-10-16T12:39:50;23.80;1.00
1626;DHT22;806;48.770;9.156;2022-10-16T12:42:30;23.80;1.00
1626;DHT22;806;48.770;9.156;2022-10-16T12:44:59;23.90;1.00
1626;DHT22;806;48.770;9.156;2022-10-16T12:47:38;23.90;1.00
1626;DHT22;806;48.770;9.156;2022-10-16T12:50:24;24.00;77.40
1626;DHT22;806;48.770;9.156;2022-10-16T12:52:51;24.00;99.90
1626;DHT22;806;48.770;9.156;2022-10-16T12:55:21;24.00;99.90
1626;DHT22;806;48.770;9.156;2022-10-16T12:58:14;23.90;99.90
1626;DHT22;806;48.770;9.156;2022-10-16T13:00:45;23.60;1.00
1626;DHT22;806;48.770;9.156;2022-10-16T13:03:38;23.50;1.00
1626;DHT22;806;48.770;9.156;2022-10-16T13:06:22;23.50;1.00
1626;DHT22;806;48.770;9.156;2022-10-16T13:09:17;23.40;1.00
1626;DHT22;806;48.770;9.156;2022-10-16T13:12:24;23.30;1.00
1626;DHT22;806;48.770;9.156;2022-10-16T13:15:11;23.40;1.00
1626;DHT22;806;48.770;9.156;2022-10-16T13:17:47;23.40;1.00
1626;DHT22;806;48.770;9.156;2022-10-16T13:20:23;23.40;99.90
1626;DHT22;806;48.770;9.156;2022-10-16T13:22:56;23.50;1.00
1626;DHT22;806;48.770;9.156;2022-10-16T13:25:33;23.40;99.90
1626;DHT22;806;48.770;9.156;2022-10-16T13:28:06;23.30;1.00
1626;DHT22;806;48.770;9.156;2022-10-16T13:30:37;23.30;1.00
1626;DHT22;806;48.770;9.156;2022-10-16T13:33:12;23.30;5.30
1626;DHT22;806;48.770;9.156;2022-10-16T13:35:49;23.30;99.90
1626;DHT22;806;48.770;9.156;2022-10-16T13:38:18;23.30;14.90
1626;DHT22;806;48.770;9.156;2022-10-16T13:40:50;23.30;1.00
1626;DHT22;806;48.770;9.156;2022-10-16T13:43:21;23.30;99.90
1626;DHT22;806;48.770;9.156;2022-10-16T13:45:54;23.30;1.00
1626;DHT22;806;48.770;9.156;2022-10-16T13:48:21;23.40;1.00
1626;DHT22;806;48.770;9.156;2022-10-16T13:50:59;23.40;78.50
1626;DHT22;806;48.770;9.156;2022-10-16T13:53:26;23.40;99.90
1626;DHT22;806;48.770;9.156;2022-10-16T13:55:53;23.40;1.00
1626;DHT22;806;48.770;9.156;2022-10-16T13:58:22;23.40;99.90
1626;DHT22;806;48.770;9.156;2022-10-16T14:00:57;23.40;1.00
1626;DHT22;806;48.770;9.156;2022-10-16T14:03:25;23.20;99.90
1626;DHT22;806;48.770;9.156;2022-10-16T14:05:54;23.10;1.00
1626;DHT22;806;48.770;9.156;2022-10-16T14:08:22;23.00;1.00
1626;DHT22;806;48.770;9.156;2022-10-16T14:10:51;22.90;1.00
1626;DHT22;806;48.770;9.156;2022-10-16T14:13:25;22.80;1.00
1626;DHT22;806;48.770;9.156;2022-10-16T14:15:53;22.80;1.00
1626;DHT22;806;48.770;9.156;2022-10-16T14:18:24;22.80;1.00
1626;DHT22;806;48.770;9.156;2022-10-16T14:20:52;22.80;1.00
1626;DHT22;806;48.770;9.156;2022-10-16T14:23:22;22.80;99.90
1626;DHT22;806;48.770;9.156;2022-10-16T14:25:49;22.80;1.00
1626;DHT22;806;48.770;9.156;2022-10-16T14:28:18;22.80;1.00
1626;DHT22;806;48.770;9.156;2022-10-16T14:30:53;22.80;99.90
1626;DHT22;806;48.770;9.156;2022-10-16T14:33:22;22.80;99.90
1626;DHT22;806;48.770;9.156;2022-10-16T14:36:01;22.80;99.90
1626;DHT22;806;48.770;9.156;2022-10-16T14:38:29;22.80;1.00
1626;DHT22;806;48.770;9.156;2022-10-16T14:40:58;22.80;99.90
1626;DHT22;806;48.770;9.156;2022-10-16T14:43:31;22.80;1.00
1626;DHT22;806;48.770;9.156;2022-10-16T14:46:01;22.80;1.00
1626;DHT22;806;48.770;9.156;2022-10-16T14:48:29;22.70;1.00
1626;DHT22;806;48.770;9.156;2022-10-16T14:50:56;22.70;1.00
1626;DHT22;806;48.770;9.156;2022-10-16T14:53:24;22.70;1.00
1626;DHT22;806;48.770;9.156;2022-10-16T14:55:51;22.70;1.00
1626;DHT22;806;48.770;9.156;2022-10-16T14:58:20;22.60;1.00
1626;DHT22;806;48.770;9.156;2022-10-16T15:00:47;22.60;1.00
1626;DHT22;806;48.770;9.156;2022-10-16T15:03:16;22.50;1.00
1626;DHT22;806;48.770;9.156;2022-10-16T15:05:43;22.50;1.00
1626;DHT22;806;48.770;9.156;2022-10-16T15:08:10;22.50;1.00
1626;DHT22;806;48.770;9.156;2022-10-16T15:10:40;22.40;1.00
1626;DHT22;806;48.770;9.156;2022-10-16T15:13:11;22.40;1.00
1626;DHT22;806;48.770;9.156;2022-10-16T15:15:41;22.30;1.00
1626;DHT22;806;48.770;9.156;2022-10-16T15:18:12;22.30;1.00
1626;DHT22;806;48.770;9.156;2022-10-16T15:20:48;22.20;1.00
1626;DHT22;806;48.770;9.156;2022-10-16T15:23:17;22.10;1.00
1626;DHT22;806;48.770;9.156;2022-10-16T15:25:46;22.10;1.00
1626;DHT22;806;48.770;9.156;2022-10-16T15:28:15;22.00;1.00
1626;DHT22;806;48.770;9.156;2022-10-16T15:30:42;21.90;1.00
1626;DHT22;806;48.770;9.156;2022-10-16T15:33:13;21.90;1.00
1626;DHT22;806;48.770;9.156;2022-10-16T15:35:40;21.80;1.00
1626;DHT22;806;48.770;9.156;2022-10-16T15:38:11;21.70;1.00
1626;DHT22;806;48.770;9.156;2022-10-16T15:40:39;21.70;1.00
1626;DHT22;806;48.770;9.156;2022-10-16T15:43:06;21.60;1.00
1626;DHT22;806;48.770;9.156;2022-10-16T15:45:34;21.50;1.00
1626;DHT22;806;48.770;9.156;2022-10-16T15:48:02;21.50;1.00
1626;DHT22;806;48.770;9.156;2022-10-16T15:50:30;21.50;1.00
1626;DHT22;806;48.770;9.156;2022-10-16T15:52:57;21.40;1.00
1626;DHT22;806;48.770;9.156;2022-10-16T15:55:25;21.40;1.00
1626;DHT22;806;48.770;9.156;2022-10-16T15:57:52;21.30;1.00
1626;DHT22;806;48.770;9.156;2022-10-16T16:00:22;21.20;1.00
1626;DHT22;806;48.770;9.156;2022-10-16T16:02:52;21.20;1.00
1626;DHT22;806;48.770;9.156;2022-10-16T16:05:21;21.10;1.00
1626;DHT22;806;48.770;9.156;2022-10-16T16:07:49;21.00;1.00
1626;DHT22;806;48.770;9.156;2022-10-16T16:10:17;21.00;1.00
1626;DHT22;806;48.770;9.156;2022-10-16T16:12:47;20.90;3.30
1626;DHT22;806;48.770;9.156;2022-10-16T16:15:18;20.80;8.60
1626;DHT22;806;48.770;9.156;2022-10-16T16:17:45;20.70;18.70
1626;DHT22;806;48.770;9.156;2022-10-16T16:20:12;20.60;17.60
1626;DHT22;806;48.770;9.156;2022-10-16T16:22:39;20.50;17.80
1626;DHT22;806;48.770;9.156;2022-10-16T16:25:07;20.40;19.90
1626;DHT22;806;48.770;9.156;2022-10-16T16:27:35;20.40;26.00
1626;DHT22;806;48.770;9.156;2022-10-16T16:30:08;20.30;36.30
1626;DHT22;806;48.770;9.156;2022-10-16T16:32:36;20.20;56.20
1626;DHT22;806;48.770;9.156;2022-10-16T16:35:06;20.10;66.60
1626;DHT22;806;48.770;9.156;2022-10-16T16:37:33;20.00;80.30
1626;DHT22;806;48.770;9.156;2022-10-16T16:40:00;19.90;78.00
1626;DHT22;806;48.770;9.156;2022-10-16T16:42:28;19.90;84.10
1626;DHT22;806;48.770;9.156;2022-10-16T16:44:55;19.80;86.10
1626;DHT22;806;48.770;9.156;2022-10-16T16:47:24;19.80;92.40
1626;DHT22;806;48.770;9.156;2022-10-16T16:49:50;19.70;99.00
1626;DHT22;806;48.770;9.156;2022-10-16T16:52:18;19.70;99.70